createdAt,value
2022-12-08T00:00:21.426Z,996.91
2022-12-08T00:01:21.397Z,996.89
2022-12-08T00:02:21.560Z,996.85
2022-12-08T00:03:21.488Z,996.87
2022-12-08T00:04:21.364Z,996.85
2022-12-08T00:05:21.457Z,996.87
2022-12-08T00:06:21.341Z,996.85
2022-12-08T00:07:21.313Z,996.83
2022-12-08T00:08:21.375Z,996.81
2022-12-08T00:09:21.300Z,996.81
2022-12-08T00:10:47.968Z,996.76
2022-12-08T00:11:22.302Z,996.79
2022-12-08T00:12:21.260Z,996.77
2022-12-08T00:13:21.234Z,996.73
2022-12-08T00:14:21.246Z,996.77
2022-12-08T00:15:21.273Z,996.74
2022-12-08T00:16:21.242Z,996.75
2022-12-08T00:17:21.184Z,996.79
2022-12-08T00:18:21.176Z,996.75
2022-12-08T00:19:21.165Z,996.78
2022-12-08T00:20:21.144Z,996.77
2022-12-08T00:21:21.147Z,996.73
2022-12-08T00:22:21.200Z,996.72
2022-12-08T00:23:21.105Z,996.68
2022-12-08T00:24:21.105Z,996.69
2022-12-08T00:25:21.087Z,996.70
2022-12-08T00:26:21.084Z,996.66
2022-12-08T00:27:21.051Z,996.67
2022-12-08T00:28:21.046Z,996.66
2022-12-08T00:29:21.178Z,996.65
2022-12-08T00:30:21.145Z,996.61
2022-12-08T00:31:21.074Z,996.63
2022-12-08T00:32:21.090Z,996.63
2022-12-08T00:33:20.974Z,996.59
2022-12-08T00:34:20.967Z,996.62
2022-12-08T00:35:21.071Z,996.59
2022-12-08T00:36:20.954Z,996.61
2022-12-08T00:37:20.924Z,996.61
2022-12-08T00:38:20.914Z,996.62
2022-12-08T00:39:20.898Z,996.62
2022-12-08T00:40:20.936Z,996.63
2022-12-08T00:41:20.881Z,996.59
2022-12-08T00:42:20.961Z,996.55
2022-12-08T00:43:20.846Z,996.57
2022-12-08T00:44:20.823Z,996.56
2022-12-08T00:45:20.813Z,996.58
2022-12-08T00:46:20.892Z,996.57
2022-12-08T00:47:24.682Z,996.53
2022-12-08T00:48:20.773Z,996.56
2022-12-08T00:49:21.129Z,996.55
2022-12-08T00:50:20.744Z,996.51
2022-12-08T00:51:20.753Z,996.50
2022-12-08T00:52:20.733Z,996.49
2022-12-08T00:53:20.703Z,996.46
2022-12-08T00:54:20.693Z,996.47
2022-12-08T00:55:20.683Z,996.45
2022-12-08T00:56:20.685Z,996.43
2022-12-08T00:57:20.670Z,996.38
2022-12-08T00:58:20.733Z,996.39
2022-12-08T00:59:20.706Z,996.37
2022-12-08T01:00:20.671Z,996.35
2022-12-08T01:01:20.691Z,996.37
2022-12-08T01:02:20.604Z,996.30
2022-12-08T01:03:20.623Z,996.29
2022-12-08T01:04:20.587Z,996.26
2022-12-08T01:05:20.553Z,996.29
2022-12-08T01:06:20.544Z,996.31
2022-12-08T01:07:20.543Z,996.28
2022-12-08T01:08:20.606Z,996.32
2022-12-08T01:09:20.503Z,996.31
2022-12-08T01:10:20.484Z,996.34
2022-12-08T01:11:20.472Z,996.31
2022-12-08T01:12:20.481Z,996.33
2022-12-08T01:13:20.443Z,996.31
2022-12-08T01:14:20.443Z,996.30
2022-12-08T01:15:20.422Z,996.29
2022-12-08T01:16:20.451Z,996.33
2022-12-08T01:17:20.420Z,996.32
2022-12-08T01:18:20.384Z,996.29
2022-12-08T01:19:20.364Z,996.32
2022-12-08T01:20:20.352Z,996.30
2022-12-08T01:21:20.344Z,996.29
2022-12-08T01:22:20.353Z,996.28
2022-12-08T01:23:20.313Z,996.35
2022-12-08T01:24:20.310Z,996.33
2022-12-08T01:25:20.293Z,996.29
2022-12-08T01:26:20.272Z,996.30
2022-12-08T01:27:20.283Z,996.31
2022-12-08T01:28:20.253Z,996.28
2022-12-08T01:29:20.253Z,996.34
2022-12-08T01:30:20.386Z,996.30
2022-12-08T01:31:20.333Z,996.32
2022-12-08T01:32:20.223Z,996.35
2022-12-08T01:33:20.183Z,996.29
2022-12-08T01:34:20.180Z,996.35
2022-12-08T01:35:20.216Z,996.36
2022-12-08T01:36:20.153Z,996.36
2022-12-08T01:37:20.171Z,996.36
2022-12-08T01:38:20.134Z,996.38
2022-12-08T01:39:20.111Z,996.41
2022-12-08T01:40:20.093Z,996.36
2022-12-08T01:41:20.083Z,996.36
2022-12-08T01:42:20.082Z,996.36
2022-12-08T01:43:20.092Z,996.38
2022-12-08T01:44:20.042Z,996.39
2022-12-08T01:45:20.022Z,996.38
2022-12-08T01:46:20.095Z,996.34
2022-12-08T01:47:20.002Z,996.35
2022-12-08T01:48:20.064Z,996.35
2022-12-08T01:49:19.977Z,996.36
2022-12-08T01:50:19.962Z,996.32
2022-12-08T01:51:19.963Z,996.35
2022-12-08T01:52:19.934Z,996.34
2022-12-08T01:53:19.942Z,996.35
2022-12-08T01:54:19.915Z,996.31
2022-12-08T01:55:19.910Z,996.30
2022-12-08T01:56:19.881Z,996.31
2022-12-08T01:57:19.882Z,996.32
2022-12-08T01:58:19.871Z,996.31
2022-12-08T01:59:19.858Z,996.28
2022-12-08T02:00:19.831Z,996.26
2022-12-08T02:01:19.858Z,996.30
2022-12-08T02:02:19.925Z,996.27
2022-12-08T02:03:19.815Z,996.28
2022-12-08T02:04:19.770Z,996.24
2022-12-08T02:05:19.891Z,996.19
2022-12-08T02:06:19.751Z,996.21
2022-12-08T02:07:19.749Z,996.16
2022-12-08T02:08:19.867Z,996.12
2022-12-08T02:09:19.711Z,996.11
2022-12-08T02:10:19.702Z,996.11
2022-12-08T02:11:19.692Z,996.05
2022-12-08T02:12:19.680Z,996.06
2022-12-08T02:13:19.681Z,996.06
2022-12-08T02:14:19.641Z,996.01
2022-12-08T02:15:19.637Z,996.05
2022-12-08T02:16:19.672Z,996.08
2022-12-08T02:17:19.620Z,996.04
2022-12-08T02:18:19.613Z,996.03
2022-12-08T02:19:30.843Z,996.07
2022-12-08T02:20:20.560Z,996.04
2022-12-08T02:21:19.681Z,996.01
2022-12-08T02:22:19.541Z,996.01
2022-12-08T02:23:19.550Z,995.99
2022-12-08T02:24:19.522Z,996.01
2022-12-08T02:25:19.508Z,995.95
2022-12-08T02:26:19.490Z,995.91
2022-12-08T02:27:19.488Z,995.94
2022-12-08T02:28:19.481Z,995.94
2022-12-08T02:29:19.458Z,995.92
2022-12-08T02:30:19.431Z,995.92
2022-12-08T02:31:19.466Z,995.92
2022-12-08T02:32:19.412Z,995.92
2022-12-08T02:33:19.431Z,995.91
2022-12-08T02:34:19.382Z,995.91
2022-12-08T02:35:19.380Z,995.88
2022-12-08T02:36:19.361Z,995.88
2022-12-08T02:37:19.349Z,995.88
2022-12-08T02:38:19.351Z,995.88
2022-12-08T02:39:19.328Z,995.83
2022-12-08T02:40:19.300Z,995.83
2022-12-08T02:41:19.300Z,995.81
2022-12-08T02:42:19.280Z,995.81
2022-12-08T02:43:19.287Z,995.81
2022-12-08T02:44:19.251Z,995.79
2022-12-08T02:45:19.252Z,995.81
2022-12-08T02:46:19.289Z,995.82
2022-12-08T02:47:19.219Z,995.81
2022-12-08T02:48:19.230Z,995.84
2022-12-08T02:49:19.204Z,995.80
2022-12-08T02:50:19.170Z,995.81
2022-12-08T02:51:19.171Z,995.79
2022-12-08T02:52:19.150Z,995.79
2022-12-08T02:53:20.241Z,995.82
2022-12-08T02:54:19.169Z,995.78
2022-12-08T02:55:19.122Z,995.80
2022-12-08T02:56:19.109Z,995.77
2022-12-08T02:57:19.079Z,995.75
2022-12-08T02:58:19.079Z,995.74
2022-12-08T02:59:19.081Z,995.77
2022-12-08T03:00:19.059Z,995.75
2022-12-08T03:01:19.120Z,995.74
2022-12-08T03:02:19.064Z,995.68
2022-12-08T03:03:19.021Z,995.68
2022-12-08T03:04:19.024Z,995.71
2022-12-08T03:05:18.995Z,995.67
2022-12-08T03:06:18.975Z,995.65
2022-12-08T03:07:18.962Z,995.62
2022-12-08T03:08:19.033Z,995.59
2022-12-08T03:09:18.950Z,995.57
2022-12-08T03:10:18.926Z,995.59
2022-12-08T03:11:18.907Z,995.58
2022-12-08T03:12:18.896Z,995.54
2022-12-08T03:13:18.869Z,995.56
2022-12-08T03:14:18.889Z,995.57
2022-12-08T03:15:18.846Z,995.53
2022-12-08T03:16:18.932Z,995.53
2022-12-08T03:17:18.818Z,995.46
2022-12-08T03:18:18.824Z,995.49
2022-12-08T03:19:18.809Z,995.45
2022-12-08T03:20:18.788Z,995.47
2022-12-08T03:21:18.777Z,995.47
2022-12-08T03:22:18.761Z,995.46
2022-12-08T03:23:18.747Z,995.44
2022-12-08T03:24:18.757Z,995.42
2022-12-08T03:25:18.716Z,995.43
2022-12-08T03:26:18.716Z,995.44
2022-12-08T03:27:18.689Z,995.41
2022-12-08T03:28:18.699Z,995.41
2022-12-08T03:29:18.686Z,995.35
2022-12-08T03:30:18.658Z,995.38
2022-12-08T03:31:18.740Z,995.36
2022-12-08T03:32:18.628Z,995.34
2022-12-08T03:33:18.608Z,995.34
2022-12-08T03:34:18.619Z,995.34
2022-12-08T03:35:18.585Z,995.32
2022-12-08T03:36:18.576Z,995.32
2022-12-08T03:37:18.565Z,995.32
2022-12-08T03:38:18.548Z,995.30
2022-12-08T03:39:18.556Z,995.30
2022-12-08T03:40:18.527Z,995.28
2022-12-08T03:41:18.552Z,995.24
2022-12-08T03:42:18.515Z,995.24
2022-12-08T03:43:18.496Z,995.22
2022-12-08T03:44:18.516Z,995.21
2022-12-08T03:45:18.455Z,995.27
2022-12-08T03:46:18.524Z,995.18
2022-12-08T03:47:18.442Z,995.19
2022-12-08T03:48:18.417Z,995.21
2022-12-08T03:49:18.416Z,995.21
2022-12-08T03:50:18.397Z,995.20
2022-12-08T03:51:18.379Z,995.20
2022-12-08T03:52:18.381Z,995.18
2022-12-08T03:53:18.378Z,995.15
2022-12-08T03:54:18.347Z,995.15
2022-12-08T03:55:18.345Z,995.13
2022-12-08T03:56:18.327Z,995.12
2022-12-08T03:57:18.287Z,995.12
2022-12-08T03:58:18.288Z,995.15
2022-12-08T03:59:18.275Z,995.09
2022-12-08T04:00:18.287Z,995.11
2022-12-08T04:01:18.349Z,995.13
2022-12-08T04:02:18.312Z,995.07
2022-12-08T04:03:18.288Z,995.05
2022-12-08T04:04:18.216Z,995.04
2022-12-08T04:05:18.217Z,995.02
2022-12-08T04:06:18.186Z,995.01
2022-12-08T04:07:18.177Z,995.00
2022-12-08T04:08:18.243Z,995.00
2022-12-08T04:09:18.144Z,994.97
2022-12-08T04:10:18.182Z,994.96
2022-12-08T04:11:18.114Z,994.95
2022-12-08T04:12:18.273Z,994.89
2022-12-08T04:13:18.095Z,994.87
2022-12-08T04:14:18.089Z,994.92
2022-12-08T04:15:18.087Z,994.90
2022-12-08T04:16:18.088Z,994.86
2022-12-08T04:17:18.048Z,994.86
2022-12-08T04:18:18.027Z,994.88
2022-12-08T04:19:18.016Z,994.83
2022-12-08T04:20:18.026Z,994.85
2022-12-08T04:21:17.995Z,994.84
2022-12-08T04:22:17.979Z,994.83
2022-12-08T04:23:20.750Z,994.84
2022-12-08T04:24:17.956Z,994.80
2022-12-08T04:25:17.956Z,994.82
2022-12-08T04:26:17.927Z,994.78
2022-12-08T04:27:17.907Z,994.75
2022-12-08T04:28:17.903Z,994.75
2022-12-08T04:29:17.885Z,994.74
2022-12-08T04:30:17.896Z,994.75
2022-12-08T04:31:17.914Z,994.74
2022-12-08T04:32:17.857Z,994.75
2022-12-08T04:33:17.835Z,994.71
2022-12-08T04:34:17.817Z,994.70
2022-12-08T04:35:17.827Z,994.69
2022-12-08T04:36:17.833Z,994.69
2022-12-08T04:37:17.779Z,994.72
2022-12-08T04:38:17.771Z,994.73
2022-12-08T04:39:17.755Z,994.74
2022-12-08T04:40:17.768Z,994.74
2022-12-08T04:41:17.724Z,994.75
2022-12-08T04:42:17.721Z,994.74
2022-12-08T04:43:17.705Z,994.75
2022-12-08T04:44:17.685Z,994.78
2022-12-08T04:45:17.666Z,994.77
2022-12-08T04:46:17.736Z,994.77
2022-12-08T04:47:17.690Z,994.77
2022-12-08T04:48:17.635Z,994.79
2022-12-08T04:49:17.623Z,994.78
2022-12-08T04:50:17.614Z,994.75
2022-12-08T04:51:17.614Z,994.79
2022-12-08T04:52:17.586Z,994.77
2022-12-08T04:53:17.575Z,994.75
2022-12-08T04:54:17.565Z,994.75
2022-12-08T04:55:17.545Z,994.80
2022-12-08T04:56:17.553Z,994.76
2022-12-08T04:57:17.516Z,994.71
2022-12-08T04:58:17.504Z,994.74
2022-12-08T04:59:17.488Z,994.71
2022-12-08T05:00:17.489Z,994.67
2022-12-08T05:01:17.531Z,994.66
2022-12-08T05:02:17.519Z,994.64
2022-12-08T05:03:17.451Z,994.65
2022-12-08T05:04:17.423Z,994.65
2022-12-08T05:05:17.411Z,994.61
2022-12-08T05:06:17.417Z,994.61
2022-12-08T05:07:17.384Z,994.60
2022-12-08T05:08:17.436Z,994.59
2022-12-08T05:09:17.363Z,994.58
2022-12-08T05:10:17.349Z,994.57
2022-12-08T05:11:17.351Z,994.57
2022-12-08T05:12:17.324Z,994.60
2022-12-08T05:13:17.305Z,994.60
2022-12-08T05:14:17.293Z,994.62
2022-12-08T05:15:17.283Z,994.61
2022-12-08T05:16:17.341Z,994.60
2022-12-08T05:17:17.251Z,994.58
2022-12-08T05:18:17.244Z,994.56
2022-12-08T05:19:17.225Z,994.57
2022-12-08T05:20:17.217Z,994.57
2022-12-08T05:21:17.221Z,994.55
2022-12-08T05:22:17.194Z,994.56
2022-12-08T05:23:17.183Z,994.51
2022-12-08T05:24:17.164Z,994.53
2022-12-08T05:25:17.152Z,994.49
2022-12-08T05:26:17.153Z,994.51
2022-12-08T05:27:17.123Z,994.49
2022-12-08T05:28:40.783Z,994.47
2022-12-08T05:29:18.095Z,994.48
2022-12-08T05:30:17.083Z,994.46
2022-12-08T05:31:17.141Z,994.48
2022-12-08T05:32:17.080Z,994.48
2022-12-08T05:33:17.052Z,994.45
2022-12-08T05:34:17.034Z,994.50
2022-12-08T05:35:17.021Z,994.49
2022-12-08T05:36:17.024Z,994.45
2022-12-08T05:37:16.991Z,994.48
2022-12-08T05:38:16.983Z,994.44
2022-12-08T05:39:16.971Z,994.47
2022-12-08T05:40:16.971Z,994.48
2022-12-08T05:41:17.007Z,994.45
2022-12-08T05:42:21.757Z,994.48
2022-12-08T05:43:17.903Z,994.46
2022-12-08T05:44:16.901Z,994.46
2022-12-08T05:45:16.925Z,994.45
2022-12-08T05:46:16.956Z,994.46
2022-12-08T05:47:16.882Z,994.44
2022-12-08T05:48:16.883Z,994.45
2022-12-08T05:49:16.844Z,994.40
2022-12-08T05:50:16.872Z,994.39
2022-12-08T05:51:16.824Z,994.40
2022-12-08T05:52:16.805Z,994.39
2022-12-08T05:53:16.792Z,994.39
2022-12-08T05:54:16.771Z,994.37
2022-12-08T05:55:16.773Z,994.39
2022-12-08T05:56:16.762Z,994.32
2022-12-08T05:57:16.732Z,994.34
2022-12-08T05:58:16.732Z,994.35
2022-12-08T05:59:16.721Z,994.35
2022-12-08T06:00:16.701Z,994.37
2022-12-08T06:01:16.702Z,994.31
2022-12-08T06:02:16.767Z,994.30
2022-12-08T06:03:16.706Z,994.33
2022-12-08T06:04:16.641Z,994.28
2022-12-08T06:05:16.630Z,994.32
2022-12-08T06:06:16.611Z,994.28
2022-12-08T06:07:16.640Z,994.32
2022-12-08T06:08:16.674Z,994.31
2022-12-08T06:09:16.588Z,994.34
2022-12-08T06:10:16.563Z,994.37
2022-12-08T06:11:16.611Z,994.31
2022-12-08T06:12:16.551Z,994.32
2022-12-08T06:13:16.524Z,994.29
2022-12-08T06:14:16.511Z,994.32
2022-12-08T06:15:16.492Z,994.33
2022-12-08T06:16:16.502Z,994.30
2022-12-08T06:17:16.491Z,994.33
2022-12-08T06:18:16.467Z,994.31
2022-12-08T06:19:16.452Z,994.28
2022-12-08T06:20:16.441Z,994.26
2022-12-08T06:21:16.422Z,994.26
2022-12-08T06:22:16.461Z,994.26
2022-12-08T06:23:16.401Z,994.22
2022-12-08T06:24:16.381Z,994.23
2022-12-08T06:25:16.370Z,994.24
2022-12-08T06:26:16.351Z,994.28
2022-12-08T06:27:16.373Z,994.23
2022-12-08T06:28:16.341Z,994.28
2022-12-08T06:29:16.331Z,994.25
2022-12-08T06:30:16.301Z,994.30
2022-12-08T06:31:16.314Z,994.31
2022-12-08T06:32:16.343Z,994.33
2022-12-08T06:33:16.322Z,994.30
2022-12-08T06:34:16.419Z,994.27
2022-12-08T06:35:16.364Z,994.33
2022-12-08T06:36:16.250Z,994.29
2022-12-08T06:37:16.238Z,994.34
2022-12-08T06:38:16.202Z,994.29
2022-12-08T06:39:16.205Z,994.28
2022-12-08T06:40:16.180Z,994.26
2022-12-08T06:41:16.170Z,994.27
2022-12-08T06:42:16.160Z,994.24
2022-12-08T06:43:16.160Z,994.26
2022-12-08T06:44:16.112Z,994.28
2022-12-08T06:45:16.120Z,994.27
2022-12-08T06:46:16.195Z,994.31
2022-12-08T06:47:16.133Z,994.28
2022-12-08T06:48:16.082Z,994.29
2022-12-08T06:49:16.069Z,994.27
2022-12-08T06:50:16.040Z,994.26
2022-12-08T06:51:16.039Z,994.26
2022-12-08T06:52:16.022Z,994.26
2022-12-08T06:53:16.030Z,994.23
2022-12-08T06:54:15.999Z,994.27
2022-12-08T06:55:35.443Z,994.23
2022-12-08T06:56:16.961Z,994.23
2022-12-08T06:57:15.959Z,994.24
2022-12-08T06:58:15.950Z,994.23
2022-12-08T06:59:15.928Z,994.26
2022-12-08T07:00:15.909Z,994.24
2022-12-08T07:01:15.946Z,994.21
2022-12-08T07:02:15.939Z,994.23
2022-12-08T07:03:15.898Z,994.27
2022-12-08T07:04:15.870Z,994.24
2022-12-08T07:05:15.842Z,994.24
2022-12-08T07:06:15.837Z,994.23
2022-12-08T07:07:15.830Z,994.25
2022-12-08T07:08:15.965Z,994.27
2022-12-08T07:09:15.810Z,994.25
2022-12-08T07:10:15.791Z,994.28
2022-12-08T07:11:21.115Z,994.27
2022-12-08T07:12:16.761Z,994.22
2022-12-08T07:13:15.768Z,994.25
2022-12-08T07:14:15.758Z,994.23
2022-12-08T07:15:15.728Z,994.26
2022-12-08T07:16:15.746Z,994.26
2022-12-08T07:17:15.755Z,994.24
2022-12-08T07:18:15.766Z,994.25
2022-12-08T07:19:15.670Z,994.28
2022-12-08T07:20:15.652Z,994.31
2022-12-08T07:21:15.636Z,994.30
2022-12-08T07:22:15.679Z,994.28
2022-12-08T07:23:15.629Z,994.27
2022-12-08T07:24:15.609Z,994.30
2022-12-08T07:25:15.599Z,994.33
2022-12-08T07:26:15.578Z,994.34
2022-12-08T07:27:15.571Z,994.36
2022-12-08T07:28:15.569Z,994.35
2022-12-08T07:29:15.538Z,994.33
2022-12-08T07:30:15.519Z,994.32
2022-12-08T07:31:15.554Z,994.34
2022-12-08T07:32:15.524Z,994.28
2022-12-08T07:33:15.488Z,994.30
2022-12-08T07:34:15.498Z,994.31
2022-12-08T07:35:15.936Z,994.33
2022-12-08T07:36:15.447Z,994.29
2022-12-08T07:37:15.437Z,994.29
2022-12-08T07:38:15.454Z,994.28
2022-12-08T07:39:15.416Z,994.28
2022-12-08T07:40:15.385Z,994.30
2022-12-08T07:41:15.386Z,994.27
2022-12-08T07:42:15.358Z,994.24
2022-12-08T07:43:15.359Z,994.24
2022-12-08T07:44:15.368Z,994.22
2022-12-08T07:45:15.326Z,994.21
2022-12-08T07:46:15.319Z,994.22
2022-12-08T07:47:15.296Z,994.22
2022-12-08T07:48:15.278Z,994.22
2022-12-08T07:49:15.287Z,994.20
2022-12-08T07:50:15.265Z,994.22
2022-12-08T07:51:15.249Z,994.25
2022-12-08T07:52:15.261Z,994.22
2022-12-08T07:53:15.226Z,994.26
2022-12-08T07:54:15.229Z,994.22
2022-12-08T07:55:15.204Z,994.29
2022-12-08T07:56:15.200Z,994.30
2022-12-08T07:57:15.167Z,994.28
2022-12-08T07:58:15.176Z,994.33
2022-12-08T07:59:15.156Z,994.28
2022-12-08T08:00:15.132Z,994.29
2022-12-08T08:01:15.342Z,994.28
2022-12-08T08:02:24.069Z,994.29
2022-12-08T08:03:16.174Z,994.27
2022-12-08T08:04:15.167Z,994.28
2022-12-08T08:05:15.067Z,994.28
2022-12-08T08:06:15.053Z,994.25
2022-12-08T08:07:15.037Z,994.29
2022-12-08T08:08:15.096Z,994.30
2022-12-08T08:09:15.027Z,994.31
2022-12-08T08:10:14.993Z,994.24
2022-12-08T08:11:20.982Z,994.23
2022-12-08T08:12:31.472Z,994.28
2022-12-08T08:13:15.956Z,994.25
2022-12-08T08:14:15.043Z,994.30
2022-12-08T08:15:14.936Z,994.27
2022-12-08T08:16:15.031Z,994.29
2022-12-08T08:17:15.034Z,994.31
2022-12-08T08:18:14.896Z,994.32
2022-12-08T08:19:14.896Z,994.30
2022-12-08T08:20:14.859Z,994.29
2022-12-08T08:21:44.937Z,994.32
2022-12-08T08:22:15.834Z,994.34
2022-12-08T08:23:14.853Z,994.31
2022-12-08T08:24:14.835Z,994.32
2022-12-08T08:25:14.795Z,994.32
2022-12-08T08:26:14.778Z,994.32
2022-12-08T08:27:14.778Z,994.32
2022-12-08T08:28:14.747Z,994.32
2022-12-08T08:29:14.767Z,994.31
2022-12-08T08:30:19.907Z,994.34
2022-12-08T08:31:15.792Z,994.33
2022-12-08T08:32:14.697Z,994.30
2022-12-08T08:33:14.697Z,994.30
2022-12-08T08:34:14.694Z,994.33
2022-12-08T08:35:14.666Z,994.33
2022-12-08T08:36:14.658Z,994.33
2022-12-08T08:37:14.689Z,994.29
2022-12-08T08:38:14.615Z,994.31
2022-12-08T08:39:14.647Z,994.31
2022-12-08T08:40:14.587Z,994.29
2022-12-08T08:41:14.586Z,994.33
2022-12-08T08:42:15.318Z,994.29
2022-12-08T08:43:14.886Z,994.35
2022-12-08T08:44:15.123Z,994.31
2022-12-08T08:45:14.636Z,994.29
2022-12-08T08:46:14.800Z,994.34
2022-12-08T08:47:14.546Z,994.34
2022-12-08T08:48:14.523Z,994.34
2022-12-08T08:49:14.634Z,994.33
2022-12-08T08:50:14.712Z,994.34
2022-12-08T08:51:14.650Z,994.34
2022-12-08T08:52:14.486Z,994.36
2022-12-08T08:53:14.616Z,994.34
2022-12-08T08:54:14.504Z,994.33
2022-12-08T08:55:14.457Z,994.33
2022-12-08T08:56:14.546Z,994.35
2022-12-08T08:57:14.486Z,994.32
2022-12-08T08:58:14.597Z,994.28
2022-12-08T08:59:14.726Z,994.28
2022-12-08T09:00:14.545Z,994.22
2022-12-08T09:01:14.530Z,994.22
2022-12-08T09:02:14.564Z,994.24
2022-12-08T09:03:14.537Z,994.26
2022-12-08T09:04:14.356Z,994.20
2022-12-08T09:05:14.535Z,994.22
2022-12-08T09:06:14.506Z,994.23
2022-12-08T09:07:14.245Z,994.21
2022-12-08T09:08:14.645Z,994.22
2022-12-08T09:09:14.463Z,994.20
2022-12-08T09:10:14.452Z,994.25
2022-12-08T09:11:14.216Z,994.19
2022-12-08T09:12:14.313Z,994.25
2022-12-08T09:13:14.417Z,994.27
2022-12-08T09:14:14.594Z,994.23
2022-12-08T09:15:14.154Z,994.23
2022-12-08T09:16:14.183Z,994.25
2022-12-08T09:17:14.359Z,994.21
2022-12-08T09:18:14.226Z,994.24
2022-12-08T09:19:14.386Z,994.27
2022-12-08T09:20:14.335Z,994.23
2022-12-08T09:21:14.393Z,994.23
2022-12-08T09:22:14.204Z,994.24
2022-12-08T09:23:14.293Z,994.26
2022-12-08T09:24:14.544Z,994.26
2022-12-08T09:25:14.025Z,994.29
2022-12-08T09:26:14.154Z,994.34
2022-12-08T09:27:14.015Z,994.37
2022-12-08T09:28:13.966Z,994.31
2022-12-08T09:29:13.958Z,994.40
2022-12-08T09:30:13.965Z,994.34
2022-12-08T09:31:14.186Z,994.42
2022-12-08T09:32:13.915Z,994.39
2022-12-08T09:33:13.910Z,994.37
2022-12-08T09:34:13.894Z,994.34
2022-12-08T09:35:13.876Z,994.34
2022-12-08T09:36:13.906Z,994.31
2022-12-08T09:37:13.866Z,994.32
2022-12-08T09:38:13.835Z,994.31
2022-12-08T09:39:14.844Z,994.28
2022-12-08T09:40:13.815Z,994.29
2022-12-08T09:41:13.816Z,994.28
2022-12-08T09:42:13.785Z,994.28
2022-12-08T09:43:13.778Z,994.32
2022-12-08T09:44:13.757Z,994.28
2022-12-08T09:45:13.738Z,994.33
2022-12-08T09:46:13.866Z,994.30
2022-12-08T09:47:13.735Z,994.27
2022-12-08T09:48:13.704Z,994.30
2022-12-08T09:49:13.755Z,994.26
2022-12-08T09:50:13.692Z,994.29
2022-12-08T09:51:13.687Z,994.27
2022-12-08T09:52:13.655Z,994.28
2022-12-08T09:53:13.843Z,994.29
2022-12-08T09:54:13.615Z,994.27
2022-12-08T09:55:13.616Z,994.28
2022-12-08T09:56:13.625Z,994.26
2022-12-08T09:57:13.588Z,994.22
2022-12-08T09:58:13.649Z,994.22
2022-12-08T09:59:13.620Z,994.23
2022-12-08T10:00:13.776Z,994.21
2022-12-08T10:01:13.555Z,994.20
2022-12-08T10:02:13.670Z,994.26
2022-12-08T10:03:16.739Z,994.20
2022-12-08T10:04:13.612Z,994.24
2022-12-08T10:05:13.824Z,994.23
2022-12-08T10:06:13.615Z,994.19
2022-12-08T10:07:13.653Z,994.18
2022-12-08T10:08:13.743Z,994.15
2022-12-08T10:09:17.173Z,994.15
2022-12-08T10:10:14.614Z,994.12
2022-12-08T10:11:13.675Z,994.10
2022-12-08T10:12:13.416Z,994.12
2022-12-08T10:13:13.374Z,994.17
2022-12-08T10:14:13.365Z,994.11
2022-12-08T10:15:13.343Z,994.14
2022-12-08T10:16:21.193Z,994.11
2022-12-08T10:17:14.425Z,994.10
2022-12-08T10:18:13.404Z,994.09
2022-12-08T10:19:13.296Z,994.10
2022-12-08T10:20:13.284Z,994.09
2022-12-08T10:21:13.264Z,994.11
2022-12-08T10:22:14.530Z,994.08
2022-12-08T10:23:13.523Z,994.07
2022-12-08T10:24:20.406Z,994.03
2022-12-08T10:25:13.205Z,994.04
2022-12-08T10:26:13.216Z,994.07
2022-12-08T10:27:13.226Z,994.05
2022-12-08T10:28:13.186Z,994.04
2022-12-08T10:29:13.165Z,994.00
2022-12-08T10:30:13.156Z,993.96
2022-12-08T10:31:13.264Z,993.97
2022-12-08T10:32:13.156Z,993.99
2022-12-08T10:33:13.116Z,993.97
2022-12-08T10:34:13.108Z,993.97
2022-12-08T10:35:13.085Z,993.90
2022-12-08T10:36:13.089Z,993.90
2022-12-08T10:37:13.087Z,993.90
2022-12-08T10:38:13.045Z,993.87
2022-12-08T10:39:13.040Z,993.91
2022-12-08T10:40:13.016Z,993.89
2022-12-08T10:41:13.005Z,993.89
2022-12-08T10:42:13.035Z,993.86
2022-12-08T10:43:12.988Z,993.86
2022-12-08T10:44:12.967Z,993.86
2022-12-08T10:45:12.958Z,993.85
2022-12-08T10:46:13.020Z,993.85
2022-12-08T10:47:13.050Z,993.86
2022-12-08T10:48:12.916Z,993.85
2022-12-08T10:49:12.898Z,993.85
2022-12-08T10:50:12.896Z,993.81
2022-12-08T10:51:12.875Z,993.80
2022-12-08T10:52:12.874Z,993.80
2022-12-08T10:53:12.865Z,993.81
2022-12-08T10:54:13.729Z,993.78
2022-12-08T10:55:12.837Z,993.77
2022-12-08T10:56:12.805Z,993.78
2022-12-08T10:57:12.793Z,993.80
2022-12-08T10:58:12.813Z,993.77
2022-12-08T10:59:12.765Z,993.74
2022-12-08T11:00:14.423Z,993.72
2022-12-08T11:01:12.874Z,993.72
2022-12-08T11:02:12.868Z,993.75
2022-12-08T11:03:12.735Z,993.68
2022-12-08T11:04:12.704Z,993.70
2022-12-08T11:05:12.685Z,993.65
2022-12-08T11:06:12.676Z,993.67
2022-12-08T11:07:12.664Z,993.69
2022-12-08T11:08:12.701Z,993.64
2022-12-08T11:09:12.635Z,993.68
2022-12-08T11:10:12.631Z,993.63
2022-12-08T11:11:12.615Z,993.65
2022-12-08T11:12:12.606Z,993.65
2022-12-08T11:13:12.606Z,993.66
2022-12-08T11:14:12.575Z,993.63
2022-12-08T11:15:12.565Z,993.65
2022-12-08T11:16:12.609Z,993.62
2022-12-08T11:17:12.533Z,993.62
2022-12-08T11:18:12.553Z,993.62
2022-12-08T11:19:12.503Z,993.62
2022-12-08T11:20:12.545Z,993.64
2022-12-08T11:21:12.484Z,993.64
2022-12-08T11:22:12.472Z,993.57
2022-12-08T11:23:12.473Z,993.60
2022-12-08T11:24:12.443Z,993.54
2022-12-08T11:25:12.447Z,993.56
2022-12-08T11:26:12.422Z,993.53
2022-12-08T11:27:12.405Z,993.51
2022-12-08T11:28:12.408Z,993.51
2022-12-08T11:29:12.394Z,993.50
2022-12-08T11:30:14.577Z,993.52
2022-12-08T11:31:12.379Z,993.52
2022-12-08T11:32:12.431Z,993.50
2022-12-08T11:33:12.323Z,993.51
2022-12-08T11:34:12.325Z,993.54
2022-12-08T11:35:12.294Z,993.51
2022-12-08T11:36:12.274Z,993.51
2022-12-08T11:37:12.275Z,993.49
2022-12-08T11:39:58.953Z,993.49
2022-12-08T11:40:22.774Z,993.46
2022-12-08T11:41:22.877Z,993.44
2022-12-08T11:42:22.771Z,993.43
2022-12-08T11:43:22.742Z,993.45
2022-12-08T11:44:22.748Z,993.42
2022-12-08T11:45:22.712Z,993.40
2022-12-08T11:46:22.876Z,993.39
2022-12-08T11:47:22.688Z,993.41
2022-12-08T11:48:22.693Z,993.36
2022-12-08T11:49:22.694Z,993.36
2022-12-08T11:50:22.682Z,993.32
2022-12-08T11:51:22.730Z,993.34
2022-12-08T11:52:22.657Z,993.37
2022-12-08T11:53:22.625Z,993.29
2022-12-08T11:54:22.635Z,993.30
2022-12-08T11:55:22.596Z,993.32
2022-12-08T11:56:22.639Z,993.29
2022-12-08T11:57:22.586Z,993.34
2022-12-08T11:58:22.685Z,993.32
2022-12-08T11:59:22.564Z,993.33
2022-12-08T12:00:22.544Z,993.31
2022-12-08T12:01:22.587Z,993.31
2022-12-08T12:02:22.636Z,993.29
2022-12-08T12:03:22.596Z,993.28
2022-12-08T12:04:22.503Z,993.27
2022-12-08T12:05:39.802Z,993.24
2022-12-08T12:06:46.419Z,993.22
2022-12-08T12:07:26.405Z,993.25
2022-12-08T12:08:22.477Z,993.27
2022-12-08T12:09:22.453Z,993.31
2022-12-08T12:10:22.405Z,993.27
2022-12-08T12:11:22.395Z,993.26
2022-12-08T12:12:22.396Z,993.32
2022-12-08T12:13:22.375Z,993.30
2022-12-08T12:14:22.353Z,993.29
2022-12-08T12:15:22.384Z,993.26
2022-12-08T12:16:22.372Z,993.30
2022-12-08T12:17:22.324Z,993.28
2022-12-08T12:18:22.310Z,993.29
2022-12-08T12:19:22.293Z,993.26
2022-12-08T12:20:22.284Z,993.26
2022-12-08T12:21:22.294Z,993.27
2022-12-08T12:22:22.252Z,993.27
2022-12-08T12:23:22.247Z,993.24
2022-12-08T12:24:26.086Z,993.24
2022-12-08T12:25:23.224Z,993.20
2022-12-08T12:26:22.203Z,993.21
2022-12-08T12:27:22.186Z,993.19
2022-12-08T12:28:22.164Z,993.16
2022-12-08T12:29:22.163Z,993.18